sensor_id;sensor_type;location;lat;lon;timestamp;temperature;humidity
45983;DHT22;31711;47.158;7.346;2023-08-30T00:01:19;12.10;99.90
45983;DHT22;31711;47.158;7.346;2023-08-30T00:03:45;12.10;99.90
45983;DHT22;31711;47.158;7.346;2023-08-30T00:06:11;12.10;99.90
45983;DHT22;31711;47.158;7.346;2023-08-30T00:08:37;12.20;99.90
45983;DHT22;31711;47.158;7.346;2023-08-30T00:11:03;12.20;99.90
45983;DHT22;31711;47.158;7.346;2023-08-30T00:13:31;12.20;99.90
45983;DHT22;31711;47.158;7.346;2023-08-30T00:15:58;12.20;99.90
45983;DHT22;31711;47.158;7.346;2023-08-30T00:18:24;12.20;99.90
45983;DHT22;31711;47.158;7.346;2023-08-30T00:20:50;12.30;99.90
45983;DHT22;31711;47.158;7.346;2023-08-30T00:23:16;12.30;99.90
45983;DHT22;31711;47.158;7.346;2023-08-30T00:25:42;12.30;99.90
45983;DHT22;31711;47.158;7.346;2023-08-30T00:28:08;12.30;99.90
45983;DHT22;31711;47.158;7.346;2023-08-30T00:30:34;12.30;99.90
45983;DHT22;31711;47.158;7.346;2023-08-30T00:33:00;12.40;99.90
45983;DHT22;31711;47.158;7.346;2023-08-30T00:35:26;12.40;99.90
45983;DHT22;31711;47.158;7.346;2023-08-30T00:37:52;12.50;99.90
45983;DHT22;31711;47.158;7.346;2023-08-30T00:40:18;12.40;99.90
45983;DHT22;31711;47.158;7.346;2023-08-30T00:42:48;12.40;99.90
45983;DHT22;31711;47.158;7.346;2023-08-30T00:45:14;12.50;99.90
45983;DHT22;31711;47.158;7.346;2023-08-30T00:47:40;12.50;99.90
45983;DHT22;31711;47.158;7.346;2023-08-30T00:50:06;12.50;99.90
45983;DHT22;31711;47.158;7.346;2023-08-30T00:52:32;12.60;99.90
45983;DHT22;31711;47.158;7.346;2023-08-30T00:54:59;12.60;99.90
45983;DHT22;31711;47.158;7.346;2023-08-30T00:57:25;12.60;99.90
45983;DHT22;31711;47.158;7.346;2023-08-30T00:59:51;12.60;99.90
45983;DHT22;31711;47.158;7.346;2023-08-30T01:02:18;12.60;99.90
45983;DHT22;31711;47.158;7.346;2023-08-30T01:04:45;12.60;99.90
45983;DHT22;31711;47.158;7.346;2023-08-30T01:07:11;12.60;99.90
45983;DHT22;31711;47.158;7.346;2023-08-30T01:09:37;12.60;99.90
45983;DHT22;31711;47.158;7.346;2023-08-30T01:12:34;12.60;99.90
45983;DHT22;31711;47.158;7.346;2023-08-30T01:15:10;12.60;99.90
45983;DHT22;31711;47.158;7.346;2023-08-30T01:17:39;12.60;99.90
45983;DHT22;31711;47.158;7.346;2023-08-30T01:20:07;12.50;99.90
45983;DHT22;31711;47.158;7.346;2023-08-30T01:28:02;12.60;99.90
45983;DHT22;31711;47.158;7.346;2023-08-30T01:30:32;12.60;99.90
45983;DHT22;31711;47.158;7.346;2023-08-30T01:33:03;12.60;99.90
45983;DHT22;31711;47.158;7.346;2023-08-30T01:35:32;12.50;99.90
45983;DHT22;31711;47.158;7.346;2023-08-30T01:37:59;12.50;99.90
45983;DHT22;31711;47.158;7.346;2023-08-30T01:40:28;12.50;99.90
45983;DHT22;31711;47.158;7.346;2023-08-30T01:42:56;12.60;99.90
45983;DHT22;31711;47.158;7.346;2023-08-30T01:45:23;12.60;99.90
45983;DHT22;31711;47.158;7.346;2023-08-30T01:47:50;12.50;99.90
45983;DHT22;31711;47.158;7.346;2023-08-30T01:50:19;12.60;99.90
45983;DHT22;31711;47.158;7.346;2023-08-30T01:52:45;12.60;99.90
45983;DHT22;31711;47.158;7.346;2023-08-30T01:55:14;12.60;99.90
45983;DHT22;31711;47.158;7.346;2023-08-30T01:57:40;12.60;99.90
45983;DHT22;31711;47.158;7.346;2023-08-30T02:00:07;12.60;99.90
45983;DHT22;31711;47.158;7.346;2023-08-30T02:02:33;12.60;99.90
45983;DHT22;31711;47.158;7.346;2023-08-30T02:04:59;12.60;99.90
45983;DHT22;31711;47.158;7.346;2023-08-30T02:10:09;12.60;99.90
45983;DHT22;31711;47.158;7.346;2023-08-30T02:12:42;12.60;99.90
45983;DHT22;31711;47.158;7.346;2023-08-30T02:15:11;12.60;99.90
45983;DHT22;31711;47.158;7.346;2023-08-30T02:17:37;12.50;99.90
45983;DHT22;31711;47.158;7.346;2023-08-30T02:20:05;12.40;99.90
45983;DHT22;31711;47.158;7.346;2023-08-30T02:22:32;12.30;99.90
45983;DHT22;31711;47.158;7.346;2023-08-30T02:24:59;12.40;99.90
45983;DHT22;31711;47.158;7.346;2023-08-30T02:27:31;12.40;99.90
45983;DHT22;31711;47.158;7.346;2023-08-30T02:29:57;12.40;99.90
45983;DHT22;31711;47.158;7.346;2023-08-30T02:32:23;12.40;99.90
45983;DHT22;31711;47.158;7.346;2023-08-30T02:34:51;12.40;99.90
45983;DHT22;31711;47.158;7.346;2023-08-30T02:37:17;12.40;99.90
45983;DHT22;31711;47.158;7.346;2023-08-30T02:39:43;12.40;99.90
45983;DHT22;31711;47.158;7.346;2023-08-30T02:42:09;12.40;99.90
45983;DHT22;31711;47.158;7.346;2023-08-30T02:44:35;12.30;99.90
45983;DHT22;31711;47.158;7.346;2023-08-30T02:47:01;12.30;99.90
45983;DHT22;31711;47.158;7.346;2023-08-30T02:49:27;12.30;99.90
45983;DHT22;31711;47.158;7.346;2023-08-30T02:51:53;12.10;99.90
45983;DHT22;31711;47.158;7.346;2023-08-30T02:54:19;12.20;99.90
45983;DHT22;31711;47.158;7.346;2023-08-30T02:56:45;12.20;99.90
45983;DHT22;31711;47.158;7.346;2023-08-30T02:59:12;12.20;99.90
45983;DHT22;31711;47.158;7.346;2023-08-30T03:01:38;12.20;99.90
45983;DHT22;31711;47.158;7.346;2023-08-30T03:04:07;12.20;99.90
45983;DHT22;31711;47.158;7.346;2023-08-30T03:06:34;12.20;99.90
45983;DHT22;31711;47.158;7.346;2023-08-30T03:09:01;12.20;99.90
45983;DHT22;31711;47.158;7.346;2023-08-30T03:11:28;12.10;99.90
45983;DHT22;31711;47.158;7.346;2023-08-30T03:13:55;12.20;99.90
45983;DHT22;31711;47.158;7.346;2023-08-30T03:16:21;12.20;99.90
45983;DHT22;31711;47.158;7.346;2023-08-30T03:18:47;12.20;99.90
45983;DHT22;31711;47.158;7.346;2023-08-30T03:21:13;12.20;99.90
45983;DHT22;31711;47.158;7.346;2023-08-30T03:23:40;12.10;99.90
45983;DHT22;31711;47.158;7.346;2023-08-30T03:26:16;12.10;99.90
45983;DHT22;31711;47.158;7.346;2023-08-30T03:28:43;12.20;99.90
45983;DHT22;31711;47.158;7.346;2023-08-30T03:31:17;12.10;99.90
45983;DHT22;31711;47.158;7.346;2023-08-30T03:33:44;12.10;99.90
45983;DHT22;31711;47.158;7.346;2023-08-30T03:36:11;12.10;99.90
45983;DHT22;31711;47.158;7.346;2023-08-30T03:38:38;12.10;99.90
45983;DHT22;31711;47.158;7.346;2023-08-30T03:41:04;12.10;99.90
45983;DHT22;31711;47.158;7.346;2023-08-30T03:43:31;12.00;99.90
45983;DHT22;31711;47.158;7.346;2023-08-30T03:45:59;12.10;99.90
45983;DHT22;31711;47.158;7.346;2023-08-30T03:48:25;12.00;99.90
45983;DHT22;31711;47.158;7.346;2023-08-30T03:50:51;11.90;99.90
45983;DHT22;31711;47.158;7.346;2023-08-30T03:53:17;12.00;99.90
45983;DHT22;31711;47.158;7.346;2023-08-30T03:55:43;12.00;99.90
45983;DHT22;31711;47.158;7.346;2023-08-30T03:58:09;12.00;99.90
45983;DHT22;31711;47.158;7.346;2023-08-30T04:00:39;12.10;99.90
45983;DHT22;31711;47.158;7.346;2023-08-30T04:03:09;12.00;99.90
45983;DHT22;31711;47.158;7.346;2023-08-30T04:05:36;12.10;99.90
45983;DHT22;31711;47.158;7.346;2023-08-30T04:08:03;12.10;99.90
45983;DHT22;31711;47.158;7.346;2023-08-30T04:10:33;12.10;99.90
45983;DHT22;31711;47.158;7.346;2023-08-30T04:12:59;12.10;99.90
45983;DHT22;31711;47.158;7.346;2023-08-30T04:15:25;12.10;99.90
45983;DHT22;31711;47.158;7.346;2023-08-30T04:17:51;12.10;99.90
45983;DHT22;31711;47.158;7.346;2023-08-30T04:20:18;12.20;99.90
45983;DHT22;31711;47.158;7.346;2023-08-30T04:22:44;12.20;99.90
45983;DHT22;31711;47.158;7.346;2023-08-30T04:25:10;12.20;99.90
45983;DHT22;31711;47.158;7.346;2023-08-30T04:27:36;12.10;99.90
45983;DHT22;31711;47.158;7.346;2023-08-30T04:30:02;12.10;99.90
45983;DHT22;31711;47.158;7.346;2023-08-30T04:32:28;12.00;99.90
45983;DHT22;31711;47.158;7.346;2023-08-30T04:34:54;12.00;99.90
45983;DHT22;31711;47.158;7.346;2023-08-30T04:37:20;11.90;99.90
45983;DHT22;31711;47.158;7.346;2023-08-30T04:39:49;11.90;99.90
45983;DHT22;31711;47.158;7.346;2023-08-30T04:42:15;11.80;99.90
45983;DHT22;31711;47.158;7.346;2023-08-30T04:44:41;11.80;99.90
45983;DHT22;31711;47.158;7.346;2023-08-30T04:47:07;11.90;99.90
45983;DHT22;31711;47.158;7.346;2023-08-30T04:49:33;11.80;99.90
45983;DHT22;31711;47.158;7.346;2023-08-30T04:51:59;11.90;99.90
45983;DHT22;31711;47.158;7.346;2023-08-30T04:54:25;11.90;99.90
45983;DHT22;31711;47.158;7.346;2023-08-30T04:56:51;11.80;99.90
45983;DHT22;31711;47.158;7.346;2023-08-30T04:59:17;11.90;99.90
45983;DHT22;31711;47.158;7.346;2023-08-30T05:01:43;11.90;99.90
45983;DHT22;31711;47.158;7.346;2023-08-30T05:04:10;12.00;99.90
45983;DHT22;31711;47.158;7.346;2023-08-30T05:06:36;12.00;99.90
45983;DHT22;31711;47.158;7.346;2023-08-30T05:09:03;12.10;99.90
45983;DHT22;31711;47.158;7.346;2023-08-30T05:11:29;12.10;99.90
45983;DHT22;31711;47.158;7.346;2023-08-30T05:13:55;12.20;99.90
45983;DHT22;31711;47.158;7.346;2023-08-30T05:16:21;12.10;99.90
45983;DHT22;31711;47.158;7.346;2023-08-30T05:18:47;12.20;99.90
45983;DHT22;31711;47.158;7.346;2023-08-30T05:21:14;12.20;99.90
45983;DHT22;31711;47.158;7.346;2023-08-30T05:23:40;12.20;99.90
45983;DHT22;31711;47.158;7.346;2023-08-30T05:26:09;12.30;99.90
45983;DHT22;31711;47.158;7.346;2023-08-30T05:28:35;12.30;99.90
45983;DHT22;31711;47.158;7.346;2023-08-30T05:31:01;12.40;99.90
45983;DHT22;31711;47.158;7.346;2023-08-30T05:33:27;12.40;99.90
45983;DHT22;31711;47.158;7.346;2023-08-30T05:35:53;12.40;99.90
45983;DHT22;31711;47.158;7.346;2023-08-30T05:41:08;12.50;99.90
45983;DHT22;31711;47.158;7.346;2023-08-30T05:44:16;12.70;99.90
45983;DHT22;31711;47.158;7.346;2023-08-30T05:58:00;12.70;99.90
45983;DHT22;31711;47.158;7.346;2023-08-30T06:04:53;12.50;99.90
45983;DHT22;31711;47.158;7.346;2023-08-30T06:07:19;12.60;99.90
45983;DHT22;31711;47.158;7.346;2023-08-30T06:12:35;12.90;99.90
45983;DHT22;31711;47.158;7.346;2023-08-30T06:15:11;13.00;99.90
45983;DHT22;31711;47.158;7.346;2023-08-30T06:17:37;13.10;99.90
45983;DHT22;31711;47.158;7.346;2023-08-30T06:20:04;13.10;99.90
45983;DHT22;31711;47.158;7.346;2023-08-30T06:22:30;13.20;99.90
45983;DHT22;31711;47.158;7.346;2023-08-30T06:24:56;13.20;99.90
45983;DHT22;31711;47.158;7.346;2023-08-30T06:27:23;13.20;99.90
45983;DHT22;31711;47.158;7.346;2023-08-30T06:29:49;13.30;99.90
45983;DHT22;31711;47.158;7.346;2023-08-30T06:32:16;13.30;99.90
45983;DHT22;31711;47.158;7.346;2023-08-30T06:34:43;13.40;99.90
45983;DHT22;31711;47.158;7.346;2023-08-30T06:37:08;13.30;99.90
45983;DHT22;31711;47.158;7.346;2023-08-30T06:39:35;13.30;99.90
45983;DHT22;31711;47.158;7.346;2023-08-30T06:42:05;13.40;99.90
45983;DHT22;31711;47.158;7.346;2023-08-30T06:44:31;13.50;99.90
45983;DHT22;31711;47.158;7.346;2023-08-30T06:46:57;13.70;99.90
45983;DHT22;31711;47.158;7.346;2023-08-30T06:49:23;13.80;99.90
45983;DHT22;31711;47.158;7.346;2023-08-30T06:51:50;13.80;99.90
45983;DHT22;31711;47.158;7.346;2023-08-30T06:54:16;14.00;99.90
45983;DHT22;31711;47.158;7.346;2023-08-30T06:56:56;14.10;99.90
45983;DHT22;31711;47.158;7.346;2023-08-30T06:59:22;14.20;99.90
45983;DHT22;31711;47.158;7.346;2023-08-30T07:01:48;14.20;99.90
45983;DHT22;31711;47.158;7.346;2023-08-30T07:04:14;14.30;99.90
45983;DHT22;31711;47.158;7.346;2023-08-30T07:06:40;14.50;99.90
45983;DHT22;31711;47.158;7.346;2023-08-30T07:09:06;14.70;99.90
45983;DHT22;31711;47.158;7.346;2023-08-30T07:11:32;14.60;99.90
45983;DHT22;31711;47.158;7.346;2023-08-30T07:13:58;14.70;99.90
45983;DHT22;31711;47.158;7.346;2023-08-30T07:16:24;14.80;99.90
45983;DHT22;31711;47.158;7.346;2023-08-30T07:18:49;14.90;99.90
45983;DHT22;31711;47.158;7.346;2023-08-30T07:21:15;15.00;99.90
45983;DHT22;31711;47.158;7.346;2023-08-30T07:23:41;15.10;99.90
45983;DHT22;31711;47.158;7.346;2023-08-30T07:26:07;15.00;99.90
45983;DHT22;31711;47.158;7.346;2023-08-30T07:28:33;15.00;99.90
45983;DHT22;31711;47.158;7.346;2023-08-30T07:31:06;15.20;99.90
45983;DHT22;31711;47.158;7.346;2023-08-30T07:33:32;15.10;99.90
45983;DHT22;31711;47.158;7.346;2023-08-30T07:35:58;15.30;99.90
45983;DHT22;31711;47.158;7.346;2023-08-30T07:38:24;15.60;99.90
45983;DHT22;31711;47.158;7.346;2023-08-30T07:40:50;15.80;99.90
45983;DHT22;31711;47.158;7.346;2023-08-30T07:43:16;15.90;99.90
45983;DHT22;31711;47.158;7.346;2023-08-30T07:45:42;16.00;99.90
45983;DHT22;31711;47.158;7.346;2023-08-30T07:48:08;16.00;99.90
45983;DHT22;31711;47.158;7.346;2023-08-30T07:50:34;15.90;99.90
45983;DHT22;31711;47.158;7.346;2023-08-30T07:53:00;15.90;99.90
45983;DHT22;31711;47.158;7.346;2023-08-30T07:55:26;15.90;99.90
45983;DHT22;31711;47.158;7.346;2023-08-30T07:57:52;15.60;99.90
45983;DHT22;31711;47.158;7.346;2023-08-30T08:00:18;15.70;99.90
45983;DHT22;31711;47.158;7.346;2023-08-30T08:02:44;15.60;99.90
45983;DHT22;31711;47.158;7.346;2023-08-30T08:05:10;15.60;99.90
45983;DHT22;31711;47.158;7.346;2023-08-30T08:07:39;15.80;99.90
45983;DHT22;31711;47.158;7.346;2023-08-30T08:10:06;15.80;99.90
45983;DHT22;31711;47.158;7.346;2023-08-30T08:12:33;15.70;99.90
45983;DHT22;31711;47.158;7.346;2023-08-30T08:14:59;15.80;99.90
45983;DHT22;31711;47.158;7.346;2023-08-30T08:17:25;15.90;99.90
45983;DHT22;31711;47.158;7.346;2023-08-30T08:19:51;16.00;99.90
45983;DHT22;31711;47.158;7.346;2023-08-30T08:22:17;16.20;99.90
45983;DHT22;31711;47.158;7.346;2023-08-30T08:24:43;16.10;99.90
45983;DHT22;31711;47.158;7.346;2023-08-30T08:27:12;16.00;99.90
45983;DHT22;31711;47.158;7.346;2023-08-30T08:29:38;16.00;99.90
45983;DHT22;31711;47.158;7.346;2023-08-30T08:32:04;16.10;99.90
45983;DHT22;31711;47.158;7.346;2023-08-30T08:34:30;16.50;99.90
45983;DHT22;31711;47.158;7.346;2023-08-30T08:36:56;16.60;99.90
45983;DHT22;31711;47.158;7.346;2023-08-30T08:39:22;16.80;99.90
45983;DHT22;31711;47.158;7.346;2023-08-30T08:41:49;16.70;99.90
45983;DHT22;31711;47.158;7.346;2023-08-30T08:44:19;16.80;99.90
45983;DHT22;31711;47.158;7.346;2023-08-30T08:46:47;17.30;99.90
45983;DHT22;31711;47.158;7.346;2023-08-30T08:49:15;17.10;99.90
45983;DHT22;31711;47.158;7.346;2023-08-30T08:51:42;17.40;99.90
45983;DHT22;31711;47.158;7.346;2023-08-30T08:54:12;17.40;99.90
45983;DHT22;31711;47.158;7.346;2023-08-30T08:56:41;17.00;99.90
45983;DHT22;31711;47.158;7.346;2023-08-30T08:59:07;16.60;99.90
45983;DHT22;31711;47.158;7.346;2023-08-30T09:01:37;16.60;99.90
45983;DHT22;31711;47.158;7.346;2023-08-30T09:04:06;16.60;99.90
45983;DHT22;31711;47.158;7.346;2023-08-30T09:06:36;17.10;99.90
45983;DHT22;31711;47.158;7.346;2023-08-30T09:09:03;17.30;99.90
45983;DHT22;31711;47.158;7.346;2023-08-30T09:11:32;17.30;99.90
45983;DHT22;31711;47.158;7.346;2023-08-30T09:13:58;17.50;99.90
45983;DHT22;31711;47.158;7.346;2023-08-30T09:16:24;17.60;99.90
45983;DHT22;31711;47.158;7.346;2023-08-30T09:19:00;17.80;99.90
45983;DHT22;31711;47.158;7.346;2023-08-30T09:21:26;17.50;99.90
45983;DHT22;31711;47.158;7.346;2023-08-30T09:24:00;17.90;99.90
45983;DHT22;31711;47.158;7.346;2023-08-30T09:26:27;18.00;99.90
45983;DHT22;31711;47.158;7.346;2023-08-30T09:28:55;17.80;99.90
45983;DHT22;31711;47.158;7.346;2023-08-30T09:31:21;18.00;99.90
45983;DHT22;31711;47.158;7.346;2023-08-30T09:33:47;18.10;99.90
45983;DHT22;31711;47.158;7.346;2023-08-30T09:36:16;18.10;99.90
45983;DHT22;31711;47.158;7.346;2023-08-30T09:38:48;18.10;99.90
45983;DHT22;31711;47.158;7.346;2023-08-30T09:41:15;18.10;99.90
45983;DHT22;31711;47.158;7.346;2023-08-30T09:43:44;18.30;99.90
45983;DHT22;31711;47.158;7.346;2023-08-30T09:46:11;18.30;99.90
45983;DHT22;31711;47.158;7.346;2023-08-30T09:48:38;18.30;99.90
45983;DHT22;31711;47.158;7.346;2023-08-30T09:51:06;18.50;99.90
45983;DHT22;31711;47.158;7.346;2023-08-30T09:53:40;18.70;99.90
45983;DHT22;31711;47.158;7.346;2023-08-30T09:56:10;18.90;99.90
45983;DHT22;31711;47.158;7.346;2023-08-30T09:58:38;18.80;99.90
45983;DHT22;31711;47.158;7.346;2023-08-30T10:01:07;19.00;99.90
45983;DHT22;31711;47.158;7.346;2023-08-30T10:03:34;19.10;99.90
45983;DHT22;31711;47.158;7.346;2023-08-30T10:06:01;19.40;99.90
45983;DHT22;31711;47.158;7.346;2023-08-30T10:08:32;19.00;99.90
45983;DHT22;31711;47.158;7.346;2023-08-30T10:10:59;18.60;99.90
45983;DHT22;31711;47.158;7.346;2023-08-30T10:13:26;18.60;99.90
45983;DHT22;31711;47.158;7.346;2023-08-30T10:15:58;18.60;99.90
45983;DHT22;31711;47.158;7.346;2023-08-30T10:18:27;18.90;99.90
45983;DHT22;31711;47.158;7.346;2023-08-30T10:20:55;18.70;99.90
45983;DHT22;31711;47.158;7.346;2023-08-30T10:23:23;18.80;99.90
45983;DHT22;31711;47.158;7.346;2023-08-30T10:25:50;19.00;99.90
45983;DHT22;31711;47.158;7.346;2023-08-30T10:28:20;19.40;99.90
45983;DHT22;31711;47.158;7.346;2023-08-30T10:30:47;19.40;99.90
45983;DHT22;31711;47.158;7.346;2023-08-30T10:33:13;19.70;99.90
45983;DHT22;31711;47.158;7.346;2023-08-30T10:35:49;19.90;99.90
45983;DHT22;31711;47.158;7.346;2023-08-30T10:38:29;20.10;99.90
45983;DHT22;31711;47.158;7.346;2023-08-30T10:41:06;20.10;99.90
45983;DHT22;31711;47.158;7.346;2023-08-30T10:43:34;20.00;99.90
45983;DHT22;31711;47.158;7.346;2023-08-30T10:46:06;20.00;99.90
45983;DHT22;31711;47.158;7.346;2023-08-30T10:48:38;20.10;99.90
45983;DHT22;31711;47.158;7.346;2023-08-30T10:51:10;20.40;99.90
45983;DHT22;31711;47.158;7.346;2023-08-30T10:53:41;20.00;99.90
45983;DHT22;31711;47.158;7.346;2023-08-30T10:56:10;20.40;99.90
45983;DHT22;31711;47.158;7.346;2023-08-30T10:58:41;20.50;99.90
45983;DHT22;31711;47.158;7.346;2023-08-30T11:01:10;20.50;99.90
45983;DHT22;31711;47.158;7.346;2023-08-30T11:03:41;20.50;99.90
45983;DHT22;31711;47.158;7.346;2023-08-30T11:06:07;20.60;99.90
45983;DHT22;31711;47.158;7.346;2023-08-30T11:08:33;20.50;99.90
45983;DHT22;31711;47.158;7.346;2023-08-30T11:11:03;20.20;99.90
45983;DHT22;31711;47.158;7.346;2023-08-30T11:13:30;20.30;99.90
45983;DHT22;31711;47.158;7.346;2023-08-30T11:16:03;20.50;99.90
45983;DHT22;31711;47.158;7.346;2023-08-30T11:18:30;20.80;99.90
45983;DHT22;31711;47.158;7.346;2023-08-30T11:21:02;20.80;99.90
45983;DHT22;31711;47.158;7.346;2023-08-30T11:23:28;21.00;99.90
45983;DHT22;31711;47.158;7.346;2023-08-30T11:25:54;21.20;99.90
45983;DHT22;31711;47.158;7.346;2023-08-30T11:28:26;21.50;99.90
45983;DHT22;31711;47.158;7.346;2023-08-30T11:30:55;21.60;99.90
45983;DHT22;31711;47.158;7.346;2023-08-30T11:33:22;21.80;99.90
45983;DHT22;31711;47.158;7.346;2023-08-30T11:35:51;21.90;99.90
45983;DHT22;31711;47.158;7.346;2023-08-30T11:38:24;21.80;99.90
45983;DHT22;31711;47.158;7.346;2023-08-30T11:40:51;21.90;99.90
45983;DHT22;31711;47.158;7.346;2023-08-30T11:43:33;22.00;99.90
45983;DHT22;31711;47.158;7.346;2023-08-30T11:46:11;22.10;99.90
45983;DHT22;31711;47.158;7.346;2023-08-30T11:48:40;22.50;99.90
45983;DHT22;31711;47.158;7.346;2023-08-30T11:51:13;22.30;99.90
45983;DHT22;31711;47.158;7.346;2023-08-30T11:53:53;22.30;99.90
45983;DHT22;31711;47.158;7.346;2023-08-30T11:56:23;22.30;99.90
45983;DHT22;31711;47.158;7.346;2023-08-30T11:58:49;22.70;99.90
45983;DHT22;31711;47.158;7.346;2023-08-30T12:01:18;21.70;99.90
45983;DHT22;31711;47.158;7.346;2023-08-30T12:03:45;21.50;99.90
45983;DHT22;31711;47.158;7.346;2023-08-30T12:06:16;22.20;99.90
45983;DHT22;31711;47.158;7.346;2023-08-30T12:08:42;22.30;99.90
45983;DHT22;31711;47.158;7.346;2023-08-30T12:11:20;22.40;99.90
45983;DHT22;31711;47.158;7.346;2023-08-30T12:13:46;22.30;99.90
45983;DHT22;31711;47.158;7.346;2023-08-30T12:16:19;21.70;99.90
45983;DHT22;31711;47.158;7.346;2023-08-30T12:18:46;20.80;99.90
45983;DHT22;31711;47.158;7.346;2023-08-30T12:21:13;20.40;99.90
45983;DHT22;31711;47.158;7.346;2023-08-30T12:23:40;20.30;99.90
45983;DHT22;31711;47.158;7.346;2023-08-30T12:26:07;20.20;99.90
45983;DHT22;31711;47.158;7.346;2023-08-30T12:28:41;20.50;99.90
45983;DHT22;31711;47.158;7.346;2023-08-30T12:31:07;20.50;99.90
45983;DHT22;31711;47.158;7.346;2023-08-30T12:33:34;20.50;99.90
45983;DHT22;31711;47.158;7.346;2023-08-30T12:36:03;21.10;99.90
45983;DHT22;31711;47.158;7.346;2023-08-30T12:38:29;21.50;99.90
45983;DHT22;31711;47.158;7.346;2023-08-30T12:40:56;21.70;99.90
45983;DHT22;31711;47.158;7.346;2023-08-30T12:43:23;21.80;99.90
45983;DHT22;31711;47.158;7.346;2023-08-30T12:45:50;21.90;99.90
45983;DHT22;31711;47.158;7.346;2023-08-30T12:48:17;21.30;99.90
45983;DHT22;31711;47.158;7.346;2023-08-30T12:50:48;21.40;99.90
45983;DHT22;31711;47.158;7.346;2023-08-30T12:53:14;21.80;99.90
45983;DHT22;31711;47.158;7.346;2023-08-30T12:55:42;21.80;99.90
45983;DHT22;31711;47.158;7.346;2023-08-30T12:58:08;21.50;99.90
45983;DHT22;31711;47.158;7.346;2023-08-30T13:00:35;21.60;99.90
45983;DHT22;31711;47.158;7.346;2023-08-30T13:03:01;21.40;99.90
45983;DHT22;31711;47.158;7.346;2023-08-30T13:05:29;21.60;99.90
45983;DHT22;31711;47.158;7.346;2023-08-30T13:08:01;22.20;99.90
45983;DHT22;31711;47.158;7.346;2023-08-30T13:10:28;21.60;99.90
45983;DHT22;31711;47.158;7.346;2023-08-30T13:12:54;21.30;99.90
45983;DHT22;31711;47.158;7.346;2023-08-30T13:15:20;21.60;99.90
45983;DHT22;31711;47.158;7.346;2023-08-30T13:17:46;21.20;99.90
45983;DHT22;31711;47.158;7.346;2023-08-30T13:20:12;21.50;99.90
45983;DHT22;31711;47.158;7.346;2023-08-30T13:22:38;21.90;99.90
45983;DHT22;31711;47.158;7.346;2023-08-30T13:25:04;22.00;99.90
45983;DHT22;31711;47.158;7.346;2023-08-30T13:27:30;22.10;99.90
45983;DHT22;31711;47.158;7.346;2023-08-30T13:29:56;22.60;99.90
45983;DHT22;31711;47.158;7.346;2023-08-30T13:32:22;22.80;99.90
45983;DHT22;31711;47.158;7.346;2023-08-30T13:34:58;22.70;99.90
45983;DHT22;31711;47.158;7.346;2023-08-30T13:37:36;23.10;99.90
45983;DHT22;31711;47.158;7.346;2023-08-30T13:40:03;23.10;99.90
45983;DHT22;31711;47.158;7.346;2023-08-30T13:42:33;23.00;99.90
45983;DHT22;31711;47.158;7.346;2023-08-30T13:44:59;22.90;99.90
45983;DHT22;31711;47.158;7.346;2023-08-30T13:47:31;22.80;99.90
45983;DHT22;31711;47.158;7.346;2023-08-30T13:50:09;22.20;99.90
45983;DHT22;31711;47.158;7.346;2023-08-30T13:52:51;21.50;99.90
45983;DHT22;31711;47.158;7.346;2023-08-30T13:58:25;21.00;99.90
45983;DHT22;31711;47.158;7.346;2023-08-30T14:01:26;20.80;99.90
45983;DHT22;31711;47.158;7.346;2023-08-30T14:03:52;20.60;99.90
45983;DHT22;31711;47.158;7.346;2023-08-30T14:06:41;20.40;99.90
45983;DHT22;31711;47.158;7.346;2023-08-30T14:09:07;20.50;99.90
45983;DHT22;31711;47.158;7.346;2023-08-30T14:11:37;20.20;99.90
45983;DHT22;31711;47.158;7.346;2023-08-30T14:14:03;20.00;99.90
45983;DHT22;31711;47.158;7.346;2023-08-30T14:16:29;20.20;99.90
45983;DHT22;31711;47.158;7.346;2023-08-30T14:18:56;20.00;99.90
45983;DHT22;31711;47.158;7.346;2023-08-30T14:21:26;20.00;99.90
45983;DHT22;31711;47.158;7.346;2023-08-30T14:23:53;20.30;99.90
45983;DHT22;31711;47.158;7.346;2023-08-30T14:26:21;20.30;99.90
45983;DHT22;31711;47.158;7.346;2023-08-30T14:28:47;20.50;99.90
45983;DHT22;31711;47.158;7.346;2023-08-30T14:31:13;20.50;99.90
45983;DHT22;31711;47.158;7.346;2023-08-30T14:33:43;20.50;99.90
45983;DHT22;31711;47.158;7.346;2023-08-30T14:36:13;20.60;99.90
45983;DHT22;31711;47.158;7.346;2023-08-30T14:38:39;20.80;99.90
45983;DHT22;31711;47.158;7.346;2023-08-30T14:41:06;21.10;99.90
45983;DHT22;31711;47.158;7.346;2023-08-30T14:43:32;20.90;99.90
45983;DHT22;31711;47.158;7.346;2023-08-30T14:46:02;21.00;99.90
45983;DHT22;31711;47.158;7.346;2023-08-30T14:48:29;21.00;99.90
45983;DHT22;31711;47.158;7.346;2023-08-30T14:50:58;21.10;99.90
45983;DHT22;31711;47.158;7.346;2023-08-30T14:53:24;21.30;99.90
45983;DHT22;31711;47.158;7.346;2023-08-30T14:55:50;21.10;99.90
45983;DHT22;31711;47.158;7.346;2023-08-30T14:58:16;21.10;99.90
45983;DHT22;31711;47.158;7.346;2023-08-30T15:00:42;20.80;99.90
45983;DHT22;31711;47.158;7.346;2023-08-30T15:03:08;20.70;99.90
45983;DHT22;31711;47.158;7.346;2023-08-30T15:05:34;20.40;99.90
45983;DHT22;31711;47.158;7.346;2023-08-30T15:08:00;20.40;99.90
45983;DHT22;31711;47.158;7.346;2023-08-30T15:10:26;20.30;99.90
45983;DHT22;31711;47.158;7.346;2023-08-30T15:12:52;20.10;99.90
45983;DHT22;31711;47.158;7.346;2023-08-30T15:15:18;20.10;99.90
45983;DHT22;31711;47.158;7.346;2023-08-30T15:17:44;20.00;99.90
45983;DHT22;31711;47.158;7.346;2023-08-30T15:20:11;20.10;99.90
45983;DHT22;31711;47.158;7.346;2023-08-30T15:22:37;20.20;99.90
45983;DHT22;31711;47.158;7.346;2023-08-30T15:25:03;20.30;99.90
45983;DHT22;31711;47.158;7.346;2023-08-30T15:27:29;20.30;99.90
45983;DHT22;31711;47.158;7.346;2023-08-30T15:29:55;20.20;99.90
45983;DHT22;31711;47.158;7.346;2023-08-30T15:32:22;20.30;99.90
45983;DHT22;31711;47.158;7.346;2023-08-30T15:34:49;20.40;99.90
45983;DHT22;31711;47.158;7.346;2023-08-30T15:37:16;20.30;99.90
45983;DHT22;31711;47.158;7.346;2023-08-30T15:39:42;20.30;99.90
45983;DHT22;31711;47.158;7.346;2023-08-30T15:42:09;20.30;99.90
45983;DHT22;31711;47.158;7.346;2023-08-30T15:44:36;20.20;99.90
45983;DHT22;31711;47.158;7.346;2023-08-30T15:47:02;20.10;99.90
45983;DHT22;31711;47.158;7.346;2023-08-30T15:49:28;20.00;99.90
45983;DHT22;31711;47.158;7.346;2023-08-30T15:51:54;20.00;99.90
45983;DHT22;31711;47.158;7.346;2023-08-30T15:54:20;20.00;99.90
45983;DHT22;31711;47.158;7.346;2023-08-30T15:56:46;20.00;99.90
45983;DHT22;31711;47.158;7.346;2023-08-30T15:59:13;19.90;99.90
45983;DHT22;31711;47.158;7.346;2023-08-30T16:01:39;20.00;99.90
45983;DHT22;31711;47.158;7.346;2023-08-30T16:04:05;19.90;99.90
45983;DHT22;31711;47.158;7.346;2023-08-30T16:06:31;20.10;99.90